RJER(METAR)
07/27 15:00
RJER 270600Z 07008KT CAVOK 27/22 Q1004 RMK A2966=
戻る
トップページへ戻る
IMOC Co,.Ltd.